createdAt,value
2022-09-15T00:01:02.616Z,57.67
2022-09-15T00:03:30.109Z,50.20
2022-09-15T00:05:56.964Z,56.85
2022-09-15T00:08:25.369Z,56.10
2022-09-15T00:11:02.250Z,50.80
2022-09-15T00:13:29.378Z,49.83
2022-09-15T00:15:56.029Z,56.55
2022-09-15T00:18:23.366Z,48.03
2022-09-15T00:20:50.106Z,68.07
2022-09-15T00:23:18.170Z,56.03
2022-09-15T00:25:47.242Z,54.35
2022-09-15T00:28:15.847Z,57.63
2022-09-15T00:30:44.463Z,55.15
2022-09-15T00:33:12.847Z,54.15
2022-09-15T00:35:44.658Z,51.85
2022-09-15T00:38:13.462Z,59.40
2022-09-15T00:40:45.616Z,51.45
2022-09-15T00:43:14.179Z,52.78
2022-09-15T00:45:41.086Z,55.45
2022-09-15T00:48:12.622Z,63.22
2022-09-15T00:50:41.334Z,61.42
2022-09-15T00:53:11.250Z,60.28
2022-09-15T00:55:45.938Z,52.88
2022-09-15T00:58:32.684Z,55.30
2022-09-15T01:01:02.367Z,47.60
2022-09-15T01:03:33.075Z,54.03
2022-09-15T01:06:13.595Z,53.17
2022-09-15T01:08:53.963Z,51.22
2022-09-15T01:11:21.432Z,48.85
2022-09-15T01:13:48.119Z,58.20
2022-09-15T01:16:29.870Z,63.55
2022-09-15T01:19:19.736Z,53.17
2022-09-15T01:22:33.047Z,56.70
2022-09-15T01:25:17.667Z,54.53
2022-09-15T01:28:12.432Z,55.22
2022-09-15T01:31:21.019Z,49.05
2022-09-15T01:34:19.173Z,60.30
2022-09-15T01:36:55.852Z,59.58
2022-09-15T01:39:27.038Z,65.10
2022-09-15T01:42:03.987Z,64.88
2022-09-15T01:44:45.022Z,61.17
2022-09-15T01:47:16.285Z,53.35
2022-09-15T01:49:59.073Z,51.65
2022-09-15T01:52:28.298Z,45.60
2022-09-15T01:55:03.482Z,58.50
2022-09-15T01:57:30.825Z,56.75
2022-09-15T01:59:57.425Z,51.97
2022-09-15T02:02:28.229Z,57.90
2022-09-15T02:05:20.665Z,61.45
2022-09-15T02:07:56.976Z,63.80
2022-09-15T02:10:36.822Z,59.03
2022-09-15T02:13:20.442Z,51.10
2022-09-15T02:18:45.515Z,53.42
2022-09-15T02:21:23.239Z,46.58
2022-09-15T02:23:55.219Z,61.20
2022-09-15T02:26:27.663Z,61.33
2022-09-15T02:28:57.001Z,53.80
2022-09-15T02:31:25.850Z,64.93
2022-09-15T02:34:01.883Z,60.63
2022-09-15T02:36:30.680Z,61.10
2022-09-15T02:39:03.665Z,60.58
2022-09-15T02:41:30.495Z,68.45
2022-09-15T02:43:57.799Z,71.93
2022-09-15T02:46:24.539Z,69.45
2022-09-15T02:48:52.045Z,78.78
2022-09-15T02:51:18.915Z,66.82
2022-09-15T02:53:46.555Z,72.80
2022-09-15T02:56:13.520Z,60.72
2022-09-15T02:58:40.816Z,68.60
2022-09-15T03:01:15.407Z,67.85
2022-09-15T03:03:44.738Z,63.53
2022-09-15T03:06:16.286Z,69.50
2022-09-15T03:08:43.544Z,68.07
2022-09-15T03:11:10.685Z,58.67
2022-09-15T03:13:37.920Z,66.63
2022-09-15T03:16:10.499Z,69.32
2022-09-15T03:18:38.319Z,64.93
2022-09-15T03:21:07.877Z,73.30
2022-09-15T03:23:34.981Z,67.88
2022-09-15T03:26:03.081Z,71.93
2022-09-15T03:28:29.914Z,75.80
2022-09-15T03:30:57.163Z,68.35
2022-09-15T03:33:24.282Z,74.43
2022-09-15T03:35:52.035Z,68.28
2022-09-15T03:38:19.411Z,70.05
2022-09-15T03:40:58.995Z,65.97
2022-09-15T03:43:26.923Z,68.75
2022-09-15T03:45:55.116Z,61.03
2022-09-15T03:48:23.154Z,66.65
2022-09-15T03:50:50.998Z,71.13
2022-09-15T03:53:18.239Z,68.15
2022-09-15T03:55:45.932Z,69.22
2022-09-15T03:58:13.676Z,66.82
2022-09-15T04:00:41.573Z,62.28
2022-09-15T04:03:09.077Z,61.95
2022-09-15T04:05:37.287Z,57.75
2022-09-15T04:08:04.561Z,64.72
2022-09-15T04:10:32.163Z,64.03
2022-09-15T04:12:58.755Z,59.60
2022-09-15T04:15:26.028Z,70.63
2022-09-15T04:17:52.657Z,58.75
2022-09-15T04:20:20.047Z,67.47
2022-09-15T04:22:46.685Z,51.55
2022-09-15T04:25:14.313Z,57.92
2022-09-15T04:27:40.945Z,62.22
2022-09-15T04:30:09.434Z,51.55
2022-09-15T04:32:36.090Z,52.75
2022-09-15T04:35:04.678Z,53.85
2022-09-15T04:37:32.274Z,48.28
2022-09-15T04:40:00.109Z,49.63
2022-09-15T04:42:27.318Z,49.97
2022-09-15T04:44:54.574Z,51.40
2022-09-15T04:47:21.234Z,58.88
2022-09-15T04:49:48.726Z,47.33
2022-09-15T04:52:15.410Z,50.65
2022-09-15T04:54:42.676Z,50.58
2022-09-15T04:57:09.459Z,53.10
2022-09-15T04:59:36.860Z,51.58
2022-09-15T05:02:03.770Z,51.45
2022-09-15T05:04:31.190Z,54.15
2022-09-15T05:06:57.890Z,50.67
2022-09-15T05:09:26.639Z,52.20
2022-09-15T05:11:53.319Z,52.75
2022-09-15T05:14:20.334Z,55.95
2022-09-15T05:16:46.924Z,51.10
2022-09-15T05:19:14.390Z,65.18
2022-09-15T05:21:41.033Z,59.17
2022-09-15T05:24:08.380Z,64.35
2022-09-15T05:26:35.210Z,63.50
2022-09-15T05:29:02.490Z,58.10
2022-09-15T05:31:31.774Z,65.00
2022-09-15T05:34:01.810Z,70.55
2022-09-15T05:36:28.745Z,63.22
2022-09-15T05:38:56.888Z,68.63
2022-09-15T05:41:25.356Z,63.67
2022-09-15T05:43:53.668Z,75.68
2022-09-15T05:46:20.487Z,74.47
2022-09-15T05:48:47.950Z,74.75
2022-09-15T05:51:14.972Z,80.20
2022-09-15T05:53:42.378Z,70.43
2022-09-15T05:56:13.898Z,70.93
2022-09-15T05:58:43.206Z,74.43
2022-09-15T06:01:18.685Z,68.22
2022-09-15T06:03:46.520Z,74.20
2022-09-15T06:06:13.745Z,75.97
2022-09-15T06:08:44.534Z,75.63
2022-09-15T06:11:15.450Z,73.57
2022-09-15T06:13:43.722Z,64.03
2022-09-15T06:16:12.680Z,67.63
2022-09-15T06:18:41.504Z,62.88
2022-09-15T06:21:13.338Z,62.25
2022-09-15T06:23:41.374Z,45.40
2022-09-15T06:26:12.114Z,66.03
2022-09-15T06:28:40.794Z,62.95
2022-09-15T06:31:12.603Z,52.92
2022-09-15T06:33:44.993Z,66.87
2022-09-15T06:36:13.134Z,67.40
2022-09-15T06:38:41.106Z,65.15
2022-09-15T06:41:08.703Z,62.55
2022-09-15T06:43:36.677Z,59.45
2022-09-15T06:46:10.549Z,63.80
2022-09-15T06:48:39.006Z,61.42
2022-09-15T06:51:07.616Z,62.45
2022-09-15T06:53:36.755Z,55.20
2022-09-15T06:56:06.533Z,56.97
2022-09-15T06:58:39.363Z,56.42
2022-09-15T07:01:12.120Z,56.85
2022-09-15T07:03:44.127Z,58.90
2022-09-15T07:06:14.941Z,55.05
2022-09-15T07:08:42.743Z,56.38
2022-09-15T07:11:10.182Z,51.15
2022-09-15T07:13:38.267Z,53.70
2022-09-15T07:16:07.213Z,50.60
2022-09-15T07:18:39.691Z,50.00
2022-09-15T07:21:13.075Z,40.50
2022-09-15T07:23:40.444Z,39.92
2022-09-15T07:26:16.291Z,43.03
2022-09-15T07:28:46.885Z,43.67
2022-09-15T07:31:16.050Z,43.05
2022-09-15T07:33:44.973Z,38.50
2022-09-15T07:36:12.385Z,34.83
2022-09-15T07:38:43.269Z,38.63
2022-09-15T07:41:15.386Z,39.97
2022-09-15T07:43:48.013Z,39.20
2022-09-15T07:46:15.777Z,35.25
2022-09-15T07:48:51.942Z,35.83
2022-09-15T07:51:19.299Z,35.25
2022-09-15T07:53:48.514Z,27.27
2022-09-15T07:56:18.117Z,31.42
2022-09-15T07:58:46.054Z,32.97
2022-09-15T08:01:16.307Z,28.08
2022-09-15T08:03:46.547Z,33.60
2022-09-15T08:06:13.789Z,67.00
2022-09-15T08:08:41.826Z,101.72
2022-09-15T08:11:12.234Z,51.30
2022-09-15T08:13:42.627Z,64.93
2022-09-15T08:16:12.210Z,34.85
2022-09-15T08:18:42.119Z,44.33
2022-09-15T08:21:11.986Z,35.78
2022-09-15T08:23:39.717Z,29.05
2022-09-15T08:26:14.061Z,28.05
2022-09-15T08:28:42.630Z,34.15
2022-09-15T08:31:12.389Z,25.25
2022-09-15T08:33:45.234Z,27.05
2022-09-15T08:36:13.337Z,31.17
2022-09-15T08:38:41.351Z,26.35
2022-09-15T08:41:14.308Z,25.63
2022-09-15T08:43:51.663Z,22.48
2022-09-15T08:46:25.015Z,21.75
2022-09-15T08:49:04.821Z,20.85
2022-09-15T08:51:46.656Z,20.13
2022-09-15T08:54:27.264Z,17.25
2022-09-15T08:56:56.140Z,30.35
2022-09-15T08:59:25.509Z,17.88
2022-09-15T09:02:05.498Z,20.77
2022-09-15T09:05:09.857Z,19.67
2022-09-15T09:07:59.586Z,15.23
2022-09-15T09:10:49.265Z,22.42
2022-09-15T09:13:42.810Z,16.17
2022-09-15T09:16:38.473Z,23.95
2022-09-15T09:19:31.978Z,23.08
2022-09-15T09:22:09.523Z,24.08
2022-09-15T09:24:46.500Z,19.95
2022-09-15T09:27:18.463Z,18.88
2022-09-15T09:29:50.027Z,22.23
2022-09-15T09:32:27.321Z,15.93
2022-09-15T09:35:37.724Z,19.65
2022-09-15T09:38:04.764Z,23.73
2022-09-15T09:40:32.686Z,20.05
2022-09-15T09:43:00.944Z,20.15
2022-09-15T09:45:27.551Z,24.77
2022-09-15T09:48:02.133Z,14.60
2022-09-15T09:50:43.465Z,16.08
2022-09-15T09:53:20.117Z,19.48
2022-09-15T09:55:46.888Z,13.45
2022-09-15T09:58:21.585Z,26.48
2022-09-15T10:00:49.092Z,34.75
2022-09-15T10:03:17.256Z,15.63
2022-09-15T10:05:46.109Z,17.65
2022-09-15T10:08:20.458Z,13.75
2022-09-15T10:10:54.364Z,7.50
2022-09-15T10:13:21.661Z,11.60
2022-09-15T10:15:58.742Z,9.43
2022-09-15T10:18:31.123Z,10.63
2022-09-15T10:21:00.331Z,8.18
2022-09-15T10:23:29.997Z,9.48
2022-09-15T10:26:21.935Z,13.07
2022-09-15T10:29:23.187Z,8.25
2022-09-15T10:31:50.684Z,9.60
2022-09-15T10:34:26.579Z,5.75
2022-09-15T10:37:02.502Z,13.25
2022-09-15T10:39:48.653Z,8.70
2022-09-15T10:42:33.180Z,6.88
2022-09-15T10:45:39.413Z,6.63
2022-09-15T10:48:22.094Z,7.45
2022-09-15T10:51:16.168Z,12.43
2022-09-15T10:53:42.763Z,11.32
2022-09-15T10:56:33.775Z,11.15
2022-09-15T10:59:05.221Z,9.45
2022-09-15T11:01:52.310Z,12.35
2022-09-15T11:04:30.075Z,10.75
2022-09-15T11:07:15.500Z,10.93
2022-09-15T11:10:06.697Z,16.58
2022-09-15T11:12:56.460Z,9.27
2022-09-15T11:15:30.137Z,12.90
2022-09-15T11:18:25.561Z,10.23
2022-09-15T11:21:11.279Z,9.65
2022-09-15T11:23:53.014Z,13.05
2022-09-15T11:26:28.702Z,8.18
2022-09-15T11:29:05.942Z,6.63
2022-09-15T11:31:39.547Z,12.55
2022-09-15T11:34:23.740Z,7.65
2022-09-15T11:37:09.793Z,10.13
2022-09-15T11:40:07.575Z,7.93
2022-09-15T11:42:57.382Z,6.93
2022-09-15T11:45:29.069Z,9.77
2022-09-15T11:48:18.493Z,8.02
2022-09-15T11:50:48.999Z,6.13
2022-09-15T11:53:37.661Z,8.52
2022-09-15T11:56:26.111Z,8.05
2022-09-15T11:59:14.855Z,12.73
2022-09-15T12:02:10.312Z,10.77
2022-09-15T12:05:02.711Z,7.55
2022-09-15T12:07:32.995Z,10.85
2022-09-15T12:10:13.284Z,11.82
2022-09-15T12:12:41.864Z,11.75
2022-09-15T12:15:16.303Z,10.07
2022-09-15T12:18:06.716Z,19.35
2022-09-15T12:21:09.897Z,10.93
2022-09-15T12:23:51.715Z,13.93
2022-09-15T12:26:21.602Z,8.48
2022-09-15T12:28:54.147Z,12.32
2022-09-15T12:31:40.879Z,19.85
2022-09-15T12:34:32.285Z,17.13
2022-09-15T12:37:12.605Z,20.67
2022-09-15T12:39:44.787Z,13.02
2022-09-15T12:42:23.809Z,14.93
2022-09-15T12:45:02.038Z,13.05
2022-09-15T12:47:49.896Z,13.40
2022-09-15T12:50:17.088Z,18.83
2022-09-15T12:52:58.093Z,14.52
2022-09-15T12:55:33.301Z,15.43
2022-09-15T12:58:07.004Z,17.02
2022-09-15T13:01:14.249Z,11.60
2022-09-15T13:03:53.783Z,6.90
2022-09-15T13:06:27.943Z,13.10
2022-09-15T13:09:05.194Z,10.30
2022-09-15T13:11:38.514Z,7.70
2022-09-15T13:14:08.039Z,7.80
2022-09-15T13:16:39.614Z,10.55
2022-09-15T13:19:12.364Z,12.60
2022-09-15T13:21:43.530Z,9.98
2022-09-15T13:24:21.316Z,11.48
2022-09-15T13:26:52.760Z,10.98
2022-09-15T13:29:20.245Z,9.95
2022-09-15T13:32:26.621Z,9.25
2022-09-15T13:35:20.860Z,10.73
2022-09-15T13:38:32.547Z,6.07
2022-09-15T13:41:08.459Z,8.25
2022-09-15T13:43:58.171Z,7.60
2022-09-15T13:46:50.398Z,6.20
2022-09-15T13:49:39.064Z,4.63
2022-09-15T13:52:26.128Z,9.05
2022-09-15T13:55:14.454Z,9.02
2022-09-15T14:00:51.677Z,4.15
2022-09-15T14:03:26.041Z,7.72
2022-09-15T14:05:54.078Z,8.75
2022-09-15T14:08:28.562Z,7.68
2022-09-15T14:11:01.423Z,5.90
2022-09-15T14:13:30.341Z,6.35
2022-09-15T14:16:12.568Z,6.50
2022-09-15T14:18:45.157Z,8.77
2022-09-15T14:21:23.357Z,10.97
2022-09-15T14:23:53.350Z,5.63
2022-09-15T14:26:23.329Z,7.97
2022-09-15T14:28:58.918Z,4.55
2022-09-15T14:31:36.259Z,7.78
2022-09-15T14:34:07.106Z,10.18
2022-09-15T14:36:35.074Z,7.22
2022-09-15T14:39:12.231Z,8.90
2022-09-15T14:41:39.992Z,7.97
2022-09-15T14:45:54.564Z,6.93
2022-09-15T14:47:21.667Z,4.93
2022-09-15T14:49:48.895Z,7.47
2022-09-15T14:52:25.153Z,5.82
2022-09-15T14:54:58.891Z,11.63
2022-09-15T14:57:31.336Z,6.68
2022-09-15T15:00:06.932Z,6.65
2022-09-15T15:03:06.041Z,8.88
2022-09-15T15:05:34.228Z,8.60
2022-09-15T15:08:07.083Z,9.73
2022-09-15T15:10:36.031Z,7.75
2022-09-15T15:13:09.495Z,6.55
2022-09-15T15:18:07.294Z,8.95
2022-09-15T15:20:34.077Z,9.75
2022-09-15T15:23:24.830Z,10.75
2022-09-15T15:25:52.588Z,4.43
2022-09-15T15:28:34.125Z,10.02
2022-09-15T15:31:29.835Z,5.72
2022-09-15T15:33:59.730Z,6.95
2022-09-15T15:36:28.476Z,8.40
2022-09-15T15:39:01.505Z,10.38
2022-09-15T15:41:41.417Z,6.93
2022-09-15T15:44:26.831Z,9.20
2022-09-15T15:47:19.289Z,9.32
2022-09-15T15:50:11.765Z,9.10
2022-09-15T15:52:33.791Z,13.18
2022-09-15T15:55:00.815Z,6.22
2022-09-15T15:57:32.858Z,6.68
2022-09-15T16:00:00.816Z,7.37
2022-09-15T16:02:32.636Z,10.38
2022-09-15T16:04:59.860Z,11.37
2022-09-15T16:07:31.101Z,8.50
2022-09-15T16:10:01.198Z,9.63
2022-09-15T16:12:30.757Z,10.13
2022-09-15T16:15:00.036Z,6.63
2022-09-15T16:17:26.690Z,16.15
2022-09-15T16:19:53.644Z,7.90
2022-09-15T16:22:20.845Z,6.90
2022-09-15T16:24:47.599Z,7.75
2022-09-15T16:27:16.203Z,7.88
2022-09-15T16:29:44.151Z,5.90
2022-09-15T16:32:19.887Z,10.90
2022-09-15T16:34:48.211Z,5.82
2022-09-15T16:37:14.819Z,10.75
2022-09-15T16:39:41.696Z,4.40
2022-09-15T16:42:10.242Z,7.07
2022-09-15T16:44:38.729Z,9.63
2022-09-15T16:47:06.621Z,6.22
2022-09-15T16:49:37.573Z,5.88
2022-09-15T16:52:04.261Z,7.03
2022-09-15T16:54:31.576Z,6.35
2022-09-15T16:56:58.176Z,7.70
2022-09-15T16:59:25.673Z,9.68
2022-09-15T17:01:53.629Z,11.77
2022-09-15T17:04:21.085Z,5.10
2022-09-15T17:06:47.718Z,5.78
2022-09-15T17:09:14.985Z,6.25
2022-09-15T17:11:41.574Z,5.47
2022-09-15T17:14:13.126Z,7.10
2022-09-15T17:16:39.835Z,4.22
2022-09-15T17:19:06.385Z,6.50
2022-09-15T17:21:33.006Z,6.55
2022-09-15T17:23:59.890Z,3.28
2022-09-15T17:26:31.073Z,9.82
2022-09-15T17:28:58.481Z,9.60
2022-09-15T17:31:25.765Z,4.95
2022-09-15T17:33:53.284Z,7.43
2022-09-15T17:36:20.167Z,7.97
2022-09-15T17:38:49.234Z,5.38
2022-09-15T17:41:18.546Z,5.13
2022-09-15T17:43:46.402Z,7.38
2022-09-15T17:46:13.376Z,5.95
2022-09-15T17:48:40.387Z,5.40
2022-09-15T17:51:12.709Z,7.32
2022-09-15T17:53:39.631Z,10.00
2022-09-15T17:56:06.437Z,9.57
2022-09-15T17:58:33.727Z,11.90
2022-09-15T18:01:00.711Z,8.55
2022-09-15T18:03:35.167Z,9.25
2022-09-15T18:06:10.011Z,13.60
2022-09-15T18:08:37.481Z,4.60
2022-09-15T18:11:05.242Z,7.70
2022-09-15T18:13:33.686Z,4.57
2022-09-15T18:16:10.900Z,5.00
2022-09-15T18:18:40.156Z,5.60
2022-09-15T18:21:09.761Z,7.80
2022-09-15T18:23:38.216Z,6.43
2022-09-15T18:26:04.967Z,4.13
2022-09-15T18:28:31.813Z,8.73
2022-09-15T18:30:58.635Z,6.60
2022-09-15T18:33:25.978Z,5.03
2022-09-15T18:35:55.844Z,7.20
2022-09-15T18:38:28.939Z,6.72
2022-09-15T18:40:56.906Z,6.95
2022-09-15T18:43:26.217Z,7.78
2022-09-15T18:45:58.090Z,7.47
2022-09-15T18:48:24.837Z,9.10
2022-09-15T18:50:53.006Z,10.52
2022-09-15T18:53:19.809Z,10.05
2022-09-15T18:55:47.594Z,7.95
2022-09-15T18:58:14.985Z,7.03
2022-09-15T19:00:41.742Z,10.50
2022-09-15T19:03:09.356Z,9.85
2022-09-15T19:05:37.287Z,6.47
2022-09-15T19:08:04.706Z,6.40
2022-09-15T19:10:31.645Z,10.70
2022-09-15T19:12:58.330Z,7.50
2022-09-15T19:15:25.277Z,7.07
2022-09-15T19:17:52.157Z,4.57
2022-09-15T19:20:53.375Z,6.47
2022-09-15T19:23:25.226Z,7.32
2022-09-15T19:25:52.916Z,8.10
2022-09-15T19:28:19.507Z,7.72
2022-09-15T19:30:46.168Z,10.32
2022-09-15T19:33:13.166Z,8.18
2022-09-15T19:35:42.152Z,8.73
2022-09-15T19:38:17.811Z,8.48
2022-09-15T19:41:14.551Z,8.20
2022-09-15T19:43:42.014Z,8.70
2022-09-15T19:46:18.854Z,11.60
2022-09-15T20:08:21.794Z,4.00
2022-09-15T20:10:56.465Z,13.90
2022-09-15T20:13:24.562Z,8.90
2022-09-15T20:16:01.542Z,6.60
2022-09-15T20:18:29.202Z,7.28
2022-09-15T20:20:56.618Z,7.95
2022-09-15T20:23:23.826Z,7.18
2022-09-15T20:26:01.865Z,7.57
2022-09-15T20:28:29.750Z,9.00
2022-09-15T20:31:15.111Z,6.00
2022-09-15T20:33:46.061Z,9.52
2022-09-15T20:36:16.357Z,9.07
2022-09-15T20:38:44.419Z,8.52
2022-09-15T20:41:13.824Z,9.10
2022-09-15T20:43:42.430Z,6.22
2022-09-15T20:46:13.287Z,4.63
2022-09-15T20:48:41.158Z,4.47
2022-09-15T20:51:16.522Z,10.68
2022-09-15T20:53:46.755Z,7.45
2022-09-15T20:56:15.082Z,7.57
2022-09-15T20:58:42.974Z,10.98
2022-09-15T21:01:22.075Z,9.00
2022-09-15T21:03:50.215Z,7.75
2022-09-15T21:06:19.139Z,11.35
2022-09-15T21:08:47.801Z,9.43
2022-09-15T21:11:16.572Z,8.82
2022-09-15T21:13:44.335Z,10.60
2022-09-15T21:16:14.949Z,5.95
2022-09-15T21:18:43.763Z,10.60
2022-09-15T21:21:19.096Z,5.32
2022-09-15T21:23:52.384Z,13.18
2022-09-15T21:28:48.000Z,10.32
2022-09-15T21:31:20.134Z,11.43
2022-09-15T21:33:48.352Z,8.65
2022-09-15T21:36:17.854Z,9.35
2022-09-15T21:38:45.363Z,3.63
2022-09-15T21:41:15.491Z,10.95
2022-09-15T21:43:45.068Z,6.95
2022-09-15T21:46:15.285Z,8.18
2022-09-15T21:48:44.207Z,8.60
2022-09-15T21:51:13.021Z,9.57
2022-09-15T21:53:42.517Z,14.50
2022-09-15T21:56:10.408Z,9.55
2022-09-15T21:58:42.966Z,9.52
2022-09-15T22:01:28.165Z,10.32
2022-09-15T22:03:57.238Z,13.13
2022-09-15T22:06:32.024Z,17.30
2022-09-15T22:09:05.813Z,5.88
2022-09-15T22:11:34.161Z,14.68
2022-09-15T22:14:02.814Z,6.75
2022-09-15T22:16:30.165Z,7.97
2022-09-15T22:18:57.389Z,10.55
2022-09-15T22:21:26.790Z,6.65
2022-09-15T22:23:56.062Z,11.70
2022-09-15T22:26:28.665Z,9.05
2022-09-15T22:28:56.199Z,10.18
2022-09-15T22:31:24.288Z,9.05
2022-09-15T22:33:51.359Z,5.28
2022-09-15T22:36:25.115Z,6.05
2022-09-15T22:38:55.179Z,8.70
2022-09-15T22:41:26.006Z,8.32
2022-09-15T22:43:52.711Z,9.38
2022-09-15T22:46:21.519Z,9.80
2022-09-15T22:48:48.140Z,7.82
2022-09-15T22:51:16.048Z,6.82
2022-09-15T22:53:42.719Z,5.40
2022-09-15T22:56:20.117Z,7.55
2022-09-15T22:58:48.514Z,8.30
2022-09-15T23:01:18.900Z,12.95
2022-09-15T23:04:07.180Z,13.02
2022-09-15T23:06:35.058Z,7.65
2022-09-15T23:09:05.381Z,8.48
2022-09-15T23:11:33.501Z,7.40
2022-09-15T23:14:01.016Z,7.15
2022-09-15T23:16:29.901Z,10.30
2022-09-15T23:18:56.536Z,8.15
2022-09-15T23:21:23.594Z,8.88
2022-09-15T23:23:52.811Z,7.72
2022-09-15T23:26:23.573Z,8.55
2022-09-15T23:28:50.241Z,4.43
2022-09-15T23:31:18.413Z,7.63
2022-09-15T23:33:45.325Z,6.25
2022-09-15T23:36:15.364Z,9.50
2022-09-15T23:38:44.212Z,5.93
2022-09-15T23:41:13.275Z,6.10
2022-09-15T23:43:40.011Z,6.20
2022-09-15T23:46:07.332Z,8.73
2022-09-15T23:48:34.330Z,6.90
2022-09-15T23:51:01.971Z,9.18
2022-09-15T23:53:29.192Z,3.65
2022-09-15T23:55:56.945Z,9.85
2022-09-15T23:58:23.794Z,8.70
